sensor_id;sensor_type;location;lat;lon;timestamp;P1;durP1;ratioP1;P2;durP2;ratioP2
22863;SDS011;11599;49.882;8.680;2023-02-04T00:06:43;8.90;;;2.10;;
22863;SDS011;11599;49.882;8.680;2023-02-04T00:17:07;7.30;;;1.73;;
22863;SDS011;11599;49.882;8.680;2023-02-04T00:27:29;9.10;;;1.90;;
22863;SDS011;11599;49.882;8.680;2023-02-04T00:37:52;13.13;;;2.07;;
22863;SDS011;11599;49.882;8.680;2023-02-04T00:48:14;9.27;;;1.53;;
22863;SDS011;11599;49.882;8.680;2023-02-04T00:58:37;9.60;;;2.03;;
22863;SDS011;11599;49.882;8.680;2023-02-04T01:08:58;14.63;;;2.20;;
22863;SDS011;11599;49.882;8.680;2023-02-04T01:19:21;10.73;;;2.60;;
22863;SDS011;11599;49.882;8.680;2023-02-04T01:29:45;15.00;;;2.70;;
22863;SDS011;11599;49.882;8.680;2023-02-04T01:40:10;10.70;;;2.50;;
22863;SDS011;11599;49.882;8.680;2023-02-04T01:50:31;11.87;;;2.53;;
22863;SDS011;11599;49.882;8.680;2023-02-04T02:00:55;9.93;;;2.33;;
22863;SDS011;11599;49.882;8.680;2023-02-04T02:11:17;11.57;;;2.67;;
22863;SDS011;11599;49.882;8.680;2023-02-04T02:21:42;10.27;;;2.33;;
22863;SDS011;11599;49.882;8.680;2023-02-04T02:32:06;8.83;;;2.37;;
22863;SDS011;11599;49.882;8.680;2023-02-04T02:42:28;11.33;;;2.60;;
22863;SDS011;11599;49.882;8.680;2023-02-04T02:52:52;12.00;;;2.87;;
22863;SDS011;11599;49.882;8.680;2023-02-04T03:03:15;14.57;;;2.50;;
22863;SDS011;11599;49.882;8.680;2023-02-04T03:13:41;13.40;;;2.90;;
22863;SDS011;11599;49.882;8.680;2023-02-04T03:24:03;14.07;;;2.80;;
22863;SDS011;11599;49.882;8.680;2023-02-04T03:34:26;14.53;;;2.47;;
22863;SDS011;11599;49.882;8.680;2023-02-04T03:44:48;13.37;;;2.63;;
22863;SDS011;11599;49.882;8.680;2023-02-04T03:55:11;11.67;;;2.60;;
22863;SDS011;11599;49.882;8.680;2023-02-04T04:05:33;12.27;;;2.93;;
22863;SDS011;11599;49.882;8.680;2023-02-04T04:15:56;10.57;;;2.17;;
22863;SDS011;11599;49.882;8.680;2023-02-04T04:26:17;10.47;;;2.17;;
22863;SDS011;11599;49.882;8.680;2023-02-04T04:36:40;13.90;;;2.97;;
22863;SDS011;11599;49.882;8.680;2023-02-04T04:47:02;12.47;;;2.60;;
22863;SDS011;11599;49.882;8.680;2023-02-04T04:57:25;12.70;;;2.80;;
22863;SDS011;11599;49.882;8.680;2023-02-04T05:07:46;14.70;;;2.50;;
22863;SDS011;11599;49.882;8.680;2023-02-04T05:18:09;16.83;;;2.47;;
22863;SDS011;11599;49.882;8.680;2023-02-04T05:28:31;15.57;;;2.73;;
22863;SDS011;11599;49.882;8.680;2023-02-04T05:38:54;11.70;;;2.23;;
22863;SDS011;11599;49.882;8.680;2023-02-04T05:49:15;19.33;;;2.90;;
22863;SDS011;11599;49.882;8.680;2023-02-04T05:59:39;14.23;;;2.90;;
22863;SDS011;11599;49.882;8.680;2023-02-04T06:10:01;10.93;;;2.60;;
22863;SDS011;11599;49.882;8.680;2023-02-04T06:20:24;18.70;;;3.03;;
22863;SDS011;11599;49.882;8.680;2023-02-04T06:33:19;20.97;;;3.10;;
22863;SDS011;11599;49.882;8.680;2023-02-04T06:42:40;20.27;;;3.47;;
22863;SDS011;11599;49.882;8.680;2023-02-04T06:53:02;11.30;;;2.47;;
22863;SDS011;11599;49.882;8.680;2023-02-04T07:03:25;17.63;;;3.33;;
22863;SDS011;11599;49.882;8.680;2023-02-04T07:13:46;13.90;;;3.07;;
22863;SDS011;11599;49.882;8.680;2023-02-04T07:24:10;22.20;;;3.17;;
22863;SDS011;11599;49.882;8.680;2023-02-04T07:34:31;24.53;;;4.57;;
22863;SDS011;11599;49.882;8.680;2023-02-04T07:44:55;14.97;;;2.97;;
22863;SDS011;11599;49.882;8.680;2023-02-04T07:55:16;28.57;;;3.50;;
22863;SDS011;11599;49.882;8.680;2023-02-04T08:05:39;20.80;;;3.37;;
22863;SDS011;11599;49.882;8.680;2023-02-04T08:16:01;16.70;;;3.27;;
22863;SDS011;11599;49.882;8.680;2023-02-04T08:26:24;14.63;;;3.27;;
22863;SDS011;11599;49.882;8.680;2023-02-04T08:36:46;18.07;;;3.07;;
22863;SDS011;11599;49.882;8.680;2023-02-04T08:47:09;21.17;;;3.03;;
22863;SDS011;11599;49.882;8.680;2023-02-04T08:57:30;12.43;;;2.50;;
22863;SDS011;11599;49.882;8.680;2023-02-04T09:07:54;10.27;;;2.13;;
22863;SDS011;11599;49.882;8.680;2023-02-04T09:18:16;18.37;;;2.30;;
22863;SDS011;11599;49.882;8.680;2023-02-04T09:28:42;16.07;;;2.00;;
22863;SDS011;11599;49.882;8.680;2023-02-04T09:39:04;15.03;;;1.97;;
22863;SDS011;11599;49.882;8.680;2023-02-04T09:49:30;18.67;;;1.70;;
22863;SDS011;11599;49.882;8.680;2023-02-04T09:59:53;8.67;;;1.80;;
22863;SDS011;11599;49.882;8.680;2023-02-04T10:10:17;10.87;;;1.67;;
22863;SDS011;11599;49.882;8.680;2023-02-04T10:20:39;11.87;;;2.00;;
22863;SDS011;11599;49.882;8.680;2023-02-04T10:31:02;20.20;;;2.47;;
22863;SDS011;11599;49.882;8.680;2023-02-04T10:41:24;13.57;;;1.77;;
22863;SDS011;11599;49.882;8.680;2023-02-04T10:51:47;8.53;;;1.70;;
22863;SDS011;11599;49.882;8.680;2023-02-04T11:02:26;6.70;;;1.53;;
22863;SDS011;11599;49.882;8.680;2023-02-04T11:23:41;12.63;;;2.70;;
22863;SDS011;11599;49.882;8.680;2023-02-04T11:34:11;11.23;;;1.53;;
22863;SDS011;11599;49.882;8.680;2023-02-04T12:26:44;7.93;;;1.50;;
22863;SDS011;11599;49.882;8.680;2023-02-04T13:08:19;9.37;;;1.50;;
22863;SDS011;11599;49.882;8.680;2023-02-04T13:51:38;11.93;;;1.67;;
22863;SDS011;11599;49.882;8.680;2023-02-04T14:02:05;5.23;;;1.53;;
22863;SDS011;11599;49.882;8.680;2023-02-04T14:12:30;7.73;;;1.50;;
22863;SDS011;11599;49.882;8.680;2023-02-04T14:22:55;18.40;;;1.77;;
22863;SDS011;11599;49.882;8.680;2023-02-04T14:55:30;13.20;;;1.97;;
22863;SDS011;11599;49.882;8.680;2023-02-04T15:05:51;9.83;;;2.30;;
22863;SDS011;11599;49.882;8.680;2023-02-04T15:16:16;11.27;;;1.40;;
22863;SDS011;11599;49.882;8.680;2023-02-04T15:26:37;13.20;;;2.10;;
22863;SDS011;11599;49.882;8.680;2023-02-04T15:37:01;8.77;;;1.30;;
22863;SDS011;11599;49.882;8.680;2023-02-04T15:47:23;11.30;;;1.53;;
22863;SDS011;11599;49.882;8.680;2023-02-04T15:57:46;10.83;;;1.60;;
22863;SDS011;11599;49.882;8.680;2023-02-04T16:08:08;10.37;;;1.80;;
22863;SDS011;11599;49.882;8.680;2023-02-04T16:18:41;12.87;;;1.73;;
22863;SDS011;11599;49.882;8.680;2023-02-04T16:29:03;5.93;;;1.70;;
22863;SDS011;11599;49.882;8.680;2023-02-04T16:39:26;9.43;;;1.40;;
22863;SDS011;11599;49.882;8.680;2023-02-04T16:49:48;12.00;;;2.60;;
22863;SDS011;11599;49.882;8.680;2023-02-04T17:00:12;11.03;;;2.20;;
22863;SDS011;11599;49.882;8.680;2023-02-04T17:10:34;11.87;;;2.00;;
22863;SDS011;11599;49.882;8.680;2023-02-04T17:21:15;11.53;;;1.77;;
22863;SDS011;11599;49.882;8.680;2023-02-04T17:31:37;9.83;;;2.07;;
22863;SDS011;11599;49.882;8.680;2023-02-04T17:42:09;9.63;;;2.00;;
22863;SDS011;11599;49.882;8.680;2023-02-04T17:52:30;10.53;;;2.17;;
22863;SDS011;11599;49.882;8.680;2023-02-04T18:02:54;12.03;;;2.17;;
22863;SDS011;11599;49.882;8.680;2023-02-04T18:13:17;7.73;;;1.90;;
22863;SDS011;11599;49.882;8.680;2023-02-04T18:23:47;9.17;;;2.10;;
22863;SDS011;11599;49.882;8.680;2023-02-04T18:46:28;10.87;;;2.70;;
22863;SDS011;11599;49.882;8.680;2023-02-04T18:56:52;8.87;;;2.13;;
22863;SDS011;11599;49.882;8.680;2023-02-04T19:07:21;15.13;;;2.67;;
22863;SDS011;11599;49.882;8.680;2023-02-04T19:17:55;7.17;;;1.83;;
22863;SDS011;11599;49.882;8.680;2023-02-04T19:28:46;11.50;;;2.97;;
22863;SDS011;11599;49.882;8.680;2023-02-04T19:39:20;14.00;;;2.93;;
22863;SDS011;11599;49.882;8.680;2023-02-04T20:02:02;9.50;;;3.30;;
22863;SDS011;11599;49.882;8.680;2023-02-04T20:13:30;14.77;;;3.57;;
22863;SDS011;11599;49.882;8.680;2023-02-04T20:46:21;10.00;;;4.00;;
22863;SDS011;11599;49.882;8.680;2023-02-04T20:57:45;10.80;;;4.13;;
22863;SDS011;11599;49.882;8.680;2023-02-04T21:08:21;14.03;;;4.50;;
22863;SDS011;11599;49.882;8.680;2023-02-04T22:52:16;10.73;;;4.70;;
22863;SDS011;11599;49.882;8.680;2023-02-04T23:03:47;12.27;;;4.43;;
